Time;durP1;ratioP1;P1;durP2;ratioP2;P2;SDS_P1;SDS_P2;PMS_P1;PMS_P2;Temp;Humidity;BMP_temperature;BMP_pressure;BME280_temperature;BME280_humidity;BME280_pressure;Samples;Min_cycle;Max_cycle;Signal;HPM_P1;HPM_P2
2022/02/13 00:00:17;;;;;;;46.85;26.38;;;51.50;2227.20;;;;;;4972915;28;20090;-60
2022/02/13 00:02:44;;;;;;;34.97;19.42;;;51.20;2227.20;;;;;;4972839;28;20054;-60
2022/02/13 00:05:11;;;;;;;27.48;17.17;;;26.50;2201.60;;;;;;4971759;28;20038;-59
2022/02/13 00:07:37;;;;;;;35.67;19.83;;;51.20;2227.20;;;;;;4972275;28;20042;-61
2022/02/13 00:10:05;;;;;;;43.38;24.67;;;26.50;2201.60;;;;;;4971234;28;20034;-59
2022/02/13 00:12:32;;;;;;;41.15;24.23;;;26.30;2201.60;;;;;;4972944;28;20023;-60
2022/02/13 00:14:57;;;;;;;39.38;19.55;;;26.20;2201.60;;;;;;4973073;28;20034;-60
2022/02/13 00:17:23;;;;;;;26.67;16.27;;;26.40;2201.60;;;;;;4972819;28;20041;-60
2022/02/13 00:19:50;;;;;;;25.65;14.40;;;26.40;2201.60;;;;;;4972894;28;20482;-61
2022/02/13 00:22:21;;;;;;;39.97;24.63;;;51.20;2227.20;;;;;;4972890;28;20027;-61
2022/02/13 00:24:47;;;;;;;23.88;16.50;;;51.40;2227.20;;;;;;4972561;28;20035;-60
2022/02/13 00:27:13;;;;;;;22.25;14.52;;;51.60;2227.20;;;;;;4972668;28;20019;-60
2022/02/13 00:29:39;;;;;;;25.13;15.07;;;51.60;2227.20;;;;;;4972852;28;20038;-60
2022/02/13 00:32:05;;;;;;;23.25;15.27;;;51.60;2227.20;;;;;;4972678;28;20035;-59
2022/02/13 00:34:32;;;;;;;19.83;13.57;;;51.40;2227.20;;;;;;4972762;28;20034;-60
2022/02/13 00:36:58;;;;;;;26.30;16.13;;;51.30;2227.20;;;;;;4972800;28;20077;-60
2022/02/13 00:39:24;;;;;;;26.52;12.82;;;51.20;2227.20;;;;;;4972369;28;20507;-59
2022/02/13 00:41:50;;;;;;;22.60;13.25;;;51.30;2227.20;;;;;;4972725;28;20078;-59
2022/02/13 00:44:16;;;;;;;19.75;11.63;;;51.50;2227.20;;;;;;4972393;28;20038;-59
2022/02/13 00:46:42;;;;;;;26.58;14.55;;;51.70;2227.20;;;;;;4972598;28;20033;-62
2022/02/13 00:49:07;;;;;;;20.38;13.00;;;51.60;2227.20;;;;;;4972483;28;20023;-61
2022/02/13 00:51:33;;;;;;;26.02;15.35;;;51.40;2227.20;;;;;;4972417;28;20190;-61
2022/02/13 00:53:59;;;;;;;23.80;15.77;;;51.30;2227.20;;;;;;4972596;28;20033;-61
2022/02/13 00:56:25;;;;;;;20.67;12.95;;;51.40;2227.20;;;;;;4972208;28;20033;-61
2022/02/13 00:58:52;;;;;;;24.88;15.13;;;51.60;2227.20;;;;;;4979082;28;20030;-60
2022/02/13 01:01:18;;;;;;;20.52;12.73;;;51.70;2227.20;;;;;;4982284;28;20124;-63
2022/02/13 01:03:44;;;;;;;23.13;13.52;;;51.70;2227.20;;;;;;4976294;28;20501;-60
2022/02/13 01:06:10;;;;;;;16.90;11.27;;;51.80;2227.20;;;;;;4977185;28;20038;-60
2022/02/13 01:08:35;;;;;;;20.17;13.05;;;51.60;2227.20;;;;;;4981821;28;20179;-61
2022/02/13 01:11:01;;;;;;;17.05;11.05;;;51.80;2227.20;;;;;;4981252;28;20022;-60
2022/02/13 01:13:28;;;;;;;20.60;12.27;;;51.90;2227.20;;;;;;4979214;28;20397;-59
2022/02/13 01:15:53;;;;;;;22.75;12.85;;;51.80;2227.20;;;;;;4979531;28;20033;-58
2022/02/13 01:18:19;;;;;;;28.48;17.33;;;51.70;2227.20;;;;;;4979726;28;20030;-59
2022/02/13 01:20:46;;;;;;;21.65;13.85;;;51.60;2227.20;;;;;;4979190;28;20022;-60
2022/02/13 01:23:11;;;;;;;27.77;12.00;;;51.80;2227.20;;;;;;4980103;28;20066;-60
2022/02/13 01:25:37;;;;;;;28.60;15.90;;;51.90;2227.20;;;;;;4971868;28;20038;-59
2022/02/13 01:28:04;;;;;;;37.22;21.13;;;52.00;2227.20;;;;;;4971713;28;20025;-59
2022/02/13 01:30:30;;;;;;;36.67;22.90;;;51.60;2227.20;;;;;;4971735;28;20070;-59
2022/02/13 01:32:56;;;;;;;32.63;21.48;;;51.60;2227.20;;;;;;4971559;28;20038;-59
2022/02/13 01:35:21;;;;;;;32.40;17.83;;;51.80;2227.20;;;;;;4971712;28;20023;-60
2022/02/13 01:37:47;;;;;;;26.67;16.92;;;51.70;2227.20;;;;;;4971839;28;20027;-60
2022/02/13 01:40:13;;;;;;;19.85;14.35;;;51.60;2227.20;;;;;;4971462;28;20473;-60
2022/02/13 01:42:39;;;;;;;25.67;15.30;;;51.80;2227.20;;;;;;4971836;28;20029;-59
2022/02/13 01:45:06;;;;;;;24.02;14.13;;;51.90;2227.20;;;;;;4971569;28;20035;-60
2022/02/13 01:47:34;;;;;;;28.67;16.83;;;52.00;2227.20;;;;;;4971544;28;20125;-60
2022/02/13 01:50:01;;;;;;;37.53;20.67;;;52.00;2227.20;;;;;;4971554;28;20117;-60
2022/02/13 01:52:28;;;;;;;22.63;14.98;;;52.00;2227.20;;;;;;4971613;28;20031;-59
2022/02/13 01:54:54;;;;;;;24.55;15.15;;;52.00;2227.20;;;;;;4971205;28;20026;-60
2022/02/13 01:57:21;;;;;;;28.98;16.90;;;52.10;2227.20;;;;;;4971626;28;20109;-60
2022/02/13 01:59:46;;;;;;;40.40;22.30;;;52.00;2227.20;;;;;;4970949;28;20493;-60
2022/02/13 02:02:12;;;;;;;57.65;33.70;;;52.10;2227.20;;;;;;4971262;28;20065;-60
2022/02/13 02:04:41;;;;;;;55.40;32.28;;;52.10;2227.20;;;;;;4971359;28;20046;-59
2022/02/13 02:07:07;;;;;;;47.72;27.08;;;52.10;2227.20;;;;;;4971551;28;20440;-60
2022/02/13 02:09:33;;;;;;;75.13;39.17;;;52.10;2227.20;;;;;;4971131;28;20038;-60
2022/02/13 02:12:05;;;;;;;65.72;36.28;;;76.80;2227.20;;;;;;4971362;28;20027;-59
2022/02/13 02:14:31;;;;;;;77.03;39.35;;;52.10;2227.20;;;;;;4971205;28;20035;-59
2022/02/13 02:16:57;;;;;;;67.82;36.08;;;52.10;2227.20;;;;;;4971036;28;20022;-61
2022/02/13 02:19:23;;;;;;;65.32;35.40;;;76.80;2227.20;;;;;;4970936;28;20118;-59
2022/02/13 02:21:49;;;;;;;42.05;23.55;;;76.90;2227.20;;;;;;4971478;28;20050;-59
2022/02/13 02:24:17;;;;;;;34.70;19.27;;;76.90;2227.20;;;;;;4970853;28;20039;-59
2022/02/13 02:26:43;;;;;;;48.00;26.00;;;76.80;2227.20;;;;;;4970857;28;20113;-60
2022/02/13 02:29:09;;;;;;;46.50;25.30;;;76.90;2227.20;;;;;;4971118;28;20046;-60
2022/02/13 02:31:36;;;;;;;42.35;23.42;;;76.90;2227.20;;;;;;4973251;28;20031;-59
2022/02/13 02:34:02;;;;;;;28.75;16.63;;;76.80;2227.20;;;;;;4975011;28;20031;-60
2022/02/13 02:36:27;;;;;;;39.42;20.63;;;52.00;2227.20;;;;;;4975254;28;20085;-59
2022/02/13 02:38:53;;;;;;;25.38;16.15;;;51.80;2227.20;;;;;;4974905;28;20395;-59
2022/02/13 02:41:19;;;;;;;27.00;15.52;;;51.40;2227.20;;;;;;4974845;28;20029;-60
2022/02/13 02:43:46;;;;;;;28.88;18.13;;;26.50;2201.60;;;;;;4974791;28;20038;-59
2022/02/13 02:46:13;;;;;;;30.58;18.35;;;26.40;2201.60;;;;;;4974849;28;20398;-59
2022/02/13 02:48:39;;;;;;;32.20;21.15;;;26.10;2201.60;;;;;;4974848;28;20039;-59
2022/02/13 02:51:06;;;;;;;33.40;19.02;;;26.40;2201.60;;;;;;4974783;28;20106;-59
2022/02/13 02:53:35;;;;;;;30.98;20.02;;;51.20;2227.20;;;;;;4974685;28;20533;-59
2022/02/13 02:56:01;;;;;;;35.53;20.63;;;51.30;2227.20;;;;;;4974489;28;20206;-59
2022/02/13 02:58:26;;;;;;;29.00;18.55;;;51.20;2227.20;;;;;;4974444;28;20027;-60
2022/02/13 03:00:52;;;;;;;41.42;21.48;;;51.20;2227.20;;;;;;4974259;28;20143;-60
2022/02/13 03:03:20;;;;;;;54.28;27.58;;;51.30;2227.20;;;;;;4974582;28;20102;-60
2022/02/13 03:05:48;;;;;;;39.63;20.75;;;51.30;2227.20;;;;;;4974241;28;20078;-60
2022/02/13 03:08:15;;;;;;;32.67;19.20;;;26.50;2201.60;;;;;;4974353;28;20026;-60
2022/02/13 03:10:41;;;;;;;28.33;17.42;;;51.20;2227.20;;;;;;4974238;28;20027;-61
2022/02/13 03:13:07;;;;;;;26.80;16.38;;;51.20;2227.20;;;;;;4974252;28;20027;-60
2022/02/13 03:15:33;;;;;;;29.13;16.15;;;51.30;2227.20;;;;;;4974244;28;20027;-60
2022/02/13 03:17:59;;;;;;;27.73;14.55;;;51.30;2227.20;;;;;;4974165;28;20401;-59
2022/02/13 03:20:25;;;;;;;32.20;18.67;;;51.30;2227.20;;;;;;4973937;28;20027;-60
2022/02/13 03:22:50;;;;;;;35.03;22.05;;;51.30;2227.20;;;;;;4974388;28;20033;-60
2022/02/13 03:25:16;;;;;;;38.75;22.35;;;51.40;2227.20;;;;;;4973857;28;20045;-60
2022/02/13 03:27:42;;;;;;;32.50;20.27;;;51.40;2227.20;;;;;;4974174;28;20389;-60
2022/02/13 03:30:08;;;;;;;37.17;21.50;;;51.40;2227.20;;;;;;4974108;28;20106;-60
2022/02/13 03:32:34;;;;;;;33.00;19.35;;;51.40;2227.20;;;;;;4973694;28;20031;-59
2022/02/13 03:35:00;;;;;;;39.67;21.70;;;51.40;2227.20;;;;;;4974008;28;20034;-59
2022/02/13 03:37:26;;;;;;;62.90;29.17;;;51.40;2227.20;;;;;;4973949;28;20034;-59
2022/02/13 03:39:53;;;;;;;42.63;22.15;;;51.30;2227.20;;;;;;4973883;28;20386;-60
2022/02/13 03:42:19;;;;;;;37.58;21.88;;;51.40;2227.20;;;;;;4973317;28;20031;-59
2022/02/13 03:44:45;;;;;;;40.25;24.10;;;51.30;2227.20;;;;;;4973430;28;20031;-60
2022/02/13 03:47:10;;;;;;;38.50;25.83;;;51.30;2227.20;;;;;;4973785;28;20034;-61
2022/02/13 03:49:36;;;;;;;37.88;24.27;;;51.20;2227.20;;;;;;4973509;28;20422;-59
2022/02/13 03:52:02;;;;;;;32.85;20.63;;;26.50;2201.60;;;;;;4973719;28;20031;-60
2022/02/13 03:54:28;;;;;;;27.15;15.75;;;51.20;2227.20;;;;;;4973781;28;20022;-59
2022/02/13 03:56:54;;;;;;;22.90;16.27;;;26.50;2201.60;;;;;;4973425;28;20406;-59
2022/02/13 03:59:19;;;;;;;38.95;21.60;;;26.40;2201.60;;;;;;4973354;28;20031;-59
2022/02/13 04:01:45;;;;;;;24.75;14.10;;;26.30;2201.60;;;;;;4973382;28;20045;-60
2022/02/13 04:04:11;;;;;;;24.30;13.00;;;26.20;2201.60;;;;;;4973285;28;20105;-60
2022/02/13 04:06:37;;;;;;;41.42;23.80;;;26.10;2201.60;;;;;;4973462;28;20030;-60
2022/02/13 04:09:02;;;;;;;26.70;13.82;;;26.20;2201.60;;;;;;4973026;28;20058;-60
2022/02/13 04:11:28;;;;;;;34.78;17.90;;;26.20;2201.60;;;;;;4973218;28;20030;-59
2022/02/13 04:13:54;;;;;;;57.17;31.42;;;26.10;2201.60;;;;;;4973192;28;20027;-60
2022/02/13 04:16:19;;;;;;;47.58;27.25;;;26.10;2201.60;;;;;;4973350;28;20425;-59
2022/02/13 04:18:45;;;;;;;21.45;13.35;;;26.20;2201.60;;;;;;4972923;28;20027;-59
2022/02/13 04:21:11;;;;;;;25.45;13.40;;;26.00;2201.60;;;;;;4973125;28;20034;-60
2022/02/13 04:23:37;;;;;;;61.78;33.60;;;26.00;2201.60;;;;;;4973171;28;20034;-60
2022/02/13 04:26:03;;;;;;;27.88;16.77;;;26.00;2201.60;;;;;;4972605;28;20038;-61
2022/02/13 04:28:29;;;;;;;23.67;16.23;;;26.00;2201.60;;;;;;4972832;28;20027;-60
2022/02/13 04:30:55;;;;;;;32.22;19.15;;;25.80;2201.60;;;;;;4972721;28;20448;-60
2022/02/13 04:33:21;;;;;;;33.08;18.70;;;25.80;2201.60;;;;;;4972738;28;20027;-59
2022/02/13 04:35:47;;;;;;;25.60;17.95;;;26.10;2201.60;;;;;;4972664;28;20031;-59
2022/02/13 04:38:13;;;;;;;27.48;19.20;;;26.00;2201.60;;;;;;4972681;28;20027;-61
2022/02/13 04:40:39;;;;;;;29.58;17.13;;;26.00;2201.60;;;;;;4972842;28;20065;-60
2022/02/13 04:43:06;;;;;;;27.90;19.35;;;26.10;2201.60;;;;;;4972805;28;20105;-59
2022/02/13 04:45:31;;;;;;;26.40;16.58;;;26.00;2201.60;;;;;;4972686;28;20182;-59
2022/02/13 04:47:57;;;;;;;21.50;15.82;;;25.90;2201.60;;;;;;4972631;28;20086;-59
2022/02/13 04:50:23;;;;;;;23.92;15.98;;;25.70;2201.60;;;;;;4972302;28;20422;-59
2022/02/13 04:52:53;;;;;;;25.00;16.15;;;25.80;2201.60;;;;;;4972188;28;20109;-61
2022/02/13 04:55:20;;;;;;;26.23;13.80;;;25.90;2201.60;;;;;;4972046;28;20037;-59
2022/02/13 04:57:46;;;;;;;27.15;13.38;;;25.80;2201.60;;;;;;4972430;28;20026;-59
2022/02/13 05:00:14;;;;;;;79.28;39.55;;;25.80;2201.60;;;;;;4971858;28;20058;-60
2022/02/13 05:02:40;;;;;;;54.40;33.22;;;25.90;2201.60;;;;;;4972410;28;20034;-59
2022/02/13 05:05:08;;;;;;;47.85;24.10;;;25.80;2201.60;;;;;;4972136;28;20035;-60
2022/02/13 05:07:34;;;;;;;51.83;30.98;;;25.90;2201.60;;;;;;4972086;28;20081;-60
2022/02/13 05:10:00;;;;;;;38.90;21.30;;;25.90;2201.60;;;;;;4972298;28;20023;-59
2022/02/13 05:12:26;;;;;;;67.00;34.13;;;25.90;2201.60;;;;;;4971940;28;20066;-60
2022/02/13 05:14:52;;;;;;;61.95;34.83;;;25.90;2201.60;;;;;;4972583;28;20058;-60
2022/02/13 05:17:21;;;;;;;61.90;30.98;;;26.00;2201.60;;;;;;4972032;28;20023;-60
2022/02/13 05:19:47;;;;;;;47.85;27.65;;;25.90;2201.60;;;;;;4971816;28;20106;-60
2022/02/13 05:22:13;;;;;;;39.60;20.75;;;25.90;2201.60;;;;;;4972023;28;20437;-60
2022/02/13 05:24:39;;;;;;;42.28;23.63;;;25.90;2201.60;;;;;;4972203;28;20063;-59
2022/02/13 05:27:05;;;;;;;37.72;17.88;;;25.90;2201.60;;;;;;4971690;28;20069;-59
2022/02/13 05:29:35;;;;;;;27.70;16.65;;;25.90;2201.60;;;;;;4971855;28;20059;-60
2022/02/13 05:32:05;;;;;;;27.30;16.50;;;25.60;2201.60;;;;;;4971980;28;20440;-59
2022/02/13 05:34:31;;;;;;;25.48;17.98;;;0.90;2201.60;;;;;;4971762;28;20540;-59
2022/02/13 05:36:57;;;;;;;22.73;15.52;;;25.60;2201.60;;;;;;4971763;28;20110;-59
2022/02/13 05:39:23;;;;;;;22.27;13.75;;;0.90;2201.60;;;;;;4971593;28;20113;-59
2022/02/13 05:41:49;;;;;;;21.77;12.27;;;25.60;2201.60;;;;;;4971822;28;20041;-59
2022/02/13 05:44:15;;;;;;;20.70;12.32;;;0.90;2201.60;;;;;;4971471;28;20545;-60
2022/02/13 05:46:41;;;;;;;28.52;16.15;;;0.90;2201.60;;;;;;4971662;28;20389;-59
2022/02/13 05:49:07;;;;;;;40.55;25.48;;;0.80;2201.60;;;;;;4971470;28;20031;-59
2022/02/13 05:51:33;;;;;;;39.17;27.80;;;0.90;2201.60;;;;;;4971430;28;20458;-61
2022/02/13 05:53:59;;;;;;;23.73;12.68;;;0.90;2201.60;;;;;;4971739;28;20035;-60
2022/02/13 05:56:24;;;;;;;30.35;15.10;;;0.80;2201.60;;;;;;4971262;28;20041;-59
2022/02/13 05:58:51;;;;;;;35.78;19.25;;;0.90;2201.60;;;;;;4971487;28;20037;-59
2022/02/13 06:01:17;;;;;;;24.60;14.13;;;0.90;2201.60;;;;;;4971227;28;20058;-59
2022/02/13 06:03:44;;;;;;;21.42;11.70;;;0.70;2201.60;;;;;;4971183;28;20027;-60
2022/02/13 06:06:09;;;;;;;30.75;12.52;;;0.80;2201.60;;;;;;4971299;28;20082;-59
2022/02/13 06:08:36;;;;;;;23.73;15.15;;;0.90;2201.60;;;;;;4971332;28;20117;-60
2022/02/13 06:11:02;;;;;;;24.38;15.32;;;25.60;2201.60;;;;;;4971245;28;20603;-59
2022/02/13 06:13:28;;;;;;;25.45;14.77;;;25.80;2201.60;;;;;;4971474;28;20031;-59
2022/02/13 06:15:54;;;;;;;26.30;15.88;;;25.60;2201.60;;;;;;4971139;28;20177;-59
2022/02/13 06:18:20;;;;;;;28.80;13.65;;;25.80;2201.60;;;;;;4971335;28;20031;-60
2022/02/13 06:20:45;;;;;;;31.90;15.60;;;25.70;2201.60;;;;;;4971082;28;20027;-59
2022/02/13 06:23:11;;;;;;;45.13;26.30;;;25.80;2201.60;;;;;;4971336;28;20469;-59
2022/02/13 06:25:38;;;;;;;84.13;44.17;;;26.10;2201.60;;;;;;4971256;28;20031;-59
2022/02/13 06:28:05;;;;;;;64.97;35.35;;;26.10;2201.60;;;;;;4971064;28;20023;-59
2022/02/13 06:30:30;;;;;;;34.95;21.95;;;26.20;2201.60;;;;;;4971157;28;20035;-62
2022/02/13 06:32:59;;;;;;;27.85;13.80;;;26.20;2201.60;;;;;;4971001;28;20027;-60
2022/02/13 06:35:25;;;;;;;17.85;11.13;;;26.20;2201.60;;;;;;4970994;28;20038;-60
2022/02/13 06:37:51;;;;;;;21.55;14.38;;;26.20;2201.60;;;;;;4971390;28;20023;-59
2022/02/13 06:40:17;;;;;;;23.42;17.13;;;26.30;2201.60;;;;;;4969953;28;20401;-59
2022/02/13 06:42:42;;;;;;;26.42;21.15;;;26.40;2201.60;;;;;;4970811;28;20030;-59
2022/02/13 06:45:08;;;;;;;23.10;17.08;;;51.20;2227.20;;;;;;4971148;28;20039;-59
2022/02/13 06:47:34;;;;;;;20.50;11.05;;;51.20;2227.20;;;;;;4953608;28;20035;-60
2022/02/13 06:50:01;;;;;;;21.60;12.18;;;26.50;2201.60;;;;;;4970894;28;20034;-59
2022/02/13 06:52:26;;;;;;;23.70;14.25;;;51.20;2227.20;;;;;;4970759;28;20377;-60
2022/02/13 06:54:52;;;;;;;40.70;30.00;;;51.20;2227.20;;;;;;4970371;28;20031;-60
2022/02/13 06:57:18;;;;;;;27.80;13.63;;;51.30;2227.20;;;;;;4969721;28;20021;-59
2022/02/13 06:59:44;;;;;;;28.00;16.63;;;51.40;2227.20;;;;;;4969680;28;20374;-62
2022/02/13 07:02:10;;;;;;;35.05;23.70;;;51.50;2227.20;;;;;;4970127;28;20109;-59
2022/02/13 07:04:39;;;;;;;30.63;16.10;;;51.60;2227.20;;;;;;4969462;28;20038;-62
2022/02/13 07:07:06;;;;;;;26.50;17.38;;;51.70;2227.20;;;;;;4969405;28;20077;-62
2022/02/13 07:09:32;;;;;;;31.23;18.60;;;51.80;2227.20;;;;;;4969826;28;20077;-60
2022/02/13 07:12:04;;;;;;;45.60;28.08;;;52.00;2227.20;;;;;;4969437;28;20022;-59
2022/02/13 07:14:33;;;;;;;51.47;32.20;;;52.00;2227.20;;;;;;4969357;28;20525;-61
2022/02/13 07:17:00;;;;;;;38.17;25.02;;;52.10;2227.20;;;;;;4970612;28;20019;-60
2022/02/13 07:19:26;;;;;;;43.90;28.15;;;52.10;2227.20;;;;;;4972675;28;20110;-59
2022/02/13 07:21:52;;;;;;;59.15;33.00;;;76.80;2227.20;;;;;;4973185;28;20051;-59
2022/02/13 07:24:17;;;;;;;50.55;33.03;;;76.90;2227.20;;;;;;4972697;28;20058;-60
2022/02/13 07:26:43;;;;;;;37.20;22.63;;;77.00;2227.20;;;;;;4972677;28;20023;-59
2022/02/13 07:29:09;;;;;;;77.80;43.58;;;77.10;2227.20;;;;;;4972695;28;20027;-59
2022/02/13 07:31:36;;;;;;;64.03;40.00;;;76.90;2227.20;;;;;;4972546;28;20037;-59
2022/02/13 07:34:03;;;;;;;88.00;51.90;;;77.20;2227.20;;;;;;4972515;28;20420;-60
2022/02/13 07:36:29;;;;;;;84.00;53.13;;;77.20;2227.20;;;;;;4972715;28;20097;-58
2022/02/13 07:38:56;;;;;;;123.18;62.08;;;77.20;2227.20;;;;;;4955141;28;20035;-60
2022/02/13 07:41:22;;;;;;;106.57;68.03;;;77.40;2227.20;;;;;;4972250;28;20093;-62
2022/02/13 07:43:48;;;;;;;124.18;80.55;;;77.50;2227.20;;;;;;4972435;28;20030;-60
2022/02/13 07:46:15;;;;;;;127.28;85.05;;;77.60;2227.20;;;;;;4972395;28;20120;-61
2022/02/13 07:48:41;;;;;;;124.18;81.75;;;77.70;2227.20;;;;;;4973075;28;20077;-60
2022/02/13 07:51:09;;;;;;;114.80;78.72;;;103.30;2227.20;;;;;;4973922;28;20026;-62
2022/02/13 07:53:36;;;;;;;120.93;87.35;;;154.50;2252.80;;;;;;4973954;28;20026;-61
2022/02/13 07:56:02;;;;;;;70.63;50.63;;;204.90;2227.20;;;;;;4974278;28;20027;-66
2022/02/13 07:58:32;;;;;;;69.13;50.47;;;205.40;2099.20;;;;;;4974284;28;20417;-60
2022/02/13 08:00:58;;;;;;;80.32;60.03;;;230.40;2048.00;;;;;;4973962;28;20062;-61
2022/02/13 08:03:24;;;;;;;77.88;52.63;;;230.70;1996.80;;;;;;4973884;28;20091;-61
2022/02/13 08:05:50;;;;;;;54.13;37.45;;;230.40;1996.80;;;;;;4973944;28;20122;-61
2022/02/13 08:08:16;;;;;;;72.43;52.70;;;231.30;1868.80;;;;;;4974084;28;20561;-61
2022/02/13 08:10:42;;;;;;;80.57;58.65;;;256.20;1843.20;;;;;;4973678;28;20070;-62
2022/02/13 08:13:08;;;;;;;77.97;58.78;;;281.60;1792.00;;;;;;4972459;28;20055;-62
2022/02/13 08:15:34;;;;;;;77.03;55.28;;;282.10;1740.80;;;;;;4972534;28;20059;-61
2022/02/13 08:18:12;;;;;;;91.97;68.78;;;307.30;1715.20;;;;;;4973599;28;20021;-63
2022/02/13 08:20:38;;;;;;;85.30;66.20;;;307.40;1715.20;;;;;;4973430;28;20053;-65
2022/02/13 08:23:04;;;;;;;89.78;66.10;;;333.00;1638.40;;;;;;4973356;28;20500;-61
2022/02/13 08:25:30;;;;;;;74.32;59.78;;;332.90;1612.80;;;;;;4974344;28;20563;-62
2022/02/13 08:27:57;;;;;;;89.53;71.18;;;333.10;1612.80;;;;;;4974259;28;20031;-62
2022/02/13 08:30:23;;;;;;;78.13;60.80;;;333.40;1587.20;;;;;;4975876;28;20027;-62
2022/02/13 08:32:48;;;;;;;70.80;54.90;;;333.10;1612.80;;;;;;4976405;28;20122;-62
2022/02/13 08:35:14;;;;;;;65.15;55.45;;;333.10;1612.80;;;;;;4975908;28;20519;-61
2022/02/13 08:37:40;;;;;;;64.03;51.65;;;333.60;1561.60;;;;;;4976103;28;20106;-62
2022/02/13 08:40:07;;;;;;;69.80;54.42;;;333.40;1561.60;;;;;;4973634;28;20034;-60
2022/02/13 08:42:32;;;;;;;55.55;43.10;;;332.80;1612.80;;;;;;4972726;28;20023;-62
2022/02/13 08:44:59;;;;;;;79.95;59.38;;;307.40;1638.40;;;;;;4972773;28;20039;-60
2022/02/13 08:47:25;;;;;;;64.93;48.13;;;307.80;1638.40;;;;;;4972675;28;20118;-61
2022/02/13 08:49:51;;;;;;;59.78;49.85;;;307.40;1664.00;;;;;;4972607;28;20106;-60
2022/02/13 08:52:17;;;;;;;64.35;48.38;;;307.20;1689.60;;;;;;4972506;28;20201;-60
2022/02/13 08:54:44;;;;;;;67.43;50.88;;;307.20;1689.60;;;;;;4972389;28;20114;-61
2022/02/13 08:57:10;;;;;;;70.28;53.10;;;307.60;1664.00;;;;;;4972330;28;20025;-62
2022/02/13 08:59:36;;;;;;;67.47;53.70;;;307.70;1638.40;;;;;;4972192;28;20544;-61
2022/02/13 09:02:02;;;;;;;63.25;49.72;;;282.50;1664.00;;;;;;4972287;28;20110;-62
2022/02/13 09:04:30;;;;;;;72.63;51.80;;;281.70;1715.20;;;;;;4972088;28;20050;-60
2022/02/13 09:07:03;;;;;;;93.28;71.75;;;256.40;1766.40;;;;;;4972068;28;20026;-61
2022/02/13 09:09:30;;;;;;;84.57;59.72;;;256.00;1817.60;;;;;;4972209;28;20031;-63
2022/02/13 09:11:56;;;;;;;94.97;68.88;;;256.00;1843.20;;;;;;4971907;28;20027;-56
2022/02/13 09:14:22;;;;;;;151.55;108.70;;;256.70;1792.00;;;;;;4972047;28;20563;-61
2022/02/13 09:16:48;;;;;;;87.28;66.07;;;282.50;1740.80;;;;;;4972117;28;20102;-58
2022/02/13 09:19:13;;;;;;;101.88;74.85;;;282.30;1740.80;;;;;;4971873;28;20492;-57
2022/02/13 09:21:39;;;;;;;88.82;65.20;;;281.70;1792.00;;;;;;4972226;28;20100;-59
2022/02/13 09:24:06;;;;;;;84.68;60.13;;;256.30;1843.20;;;;;;4971863;28;20034;-58
2022/02/13 09:26:32;;;;;;;85.13;61.25;;;231.30;1894.40;;;;;;4971930;28;20038;-58
2022/02/13 09:28:59;;;;;;;74.88;54.83;;;230.90;1945.60;;;;;;4954239;28;20406;-60
2022/02/13 09:31:26;;;;;;;94.85;66.10;;;231.10;1945.60;;;;;;4971675;28;20037;-59
2022/02/13 09:33:51;;;;;;;85.63;62.25;;;230.90;1971.20;;;;;;4971753;28;20474;-59
2022/02/13 09:36:21;;;;;;;88.05;61.97;;;230.90;1971.20;;;;;;4971661;28;20031;-59
2022/02/13 09:38:48;;;;;;;90.88;72.80;;;231.10;1971.20;;;;;;4971694;28;20077;-59
2022/02/13 09:41:20;;;;;;;89.07;56.67;;;256.20;1920.00;;;;;;4971141;28;20027;-59
2022/02/13 09:43:46;;;;;;;100.03;68.53;;;231.20;1971.20;;;;;;4971252;28;20381;-59
2022/02/13 09:46:15;;;;;;;80.78;57.83;;;231.10;1996.80;;;;;;4971515;28;20043;-61
2022/02/13 09:48:42;;;;;;;78.75;59.70;;;231.00;2022.40;;;;;;4971581;28;20042;-61
2022/02/13 09:51:10;;;;;;;86.68;61.17;;;231.30;2022.40;;;;;;4971915;28;20037;-59
2022/02/13 09:53:36;;;;;;;86.68;60.47;;;256.10;1996.80;;;;;;4971467;28;20065;-59
2022/02/13 09:56:06;;;;;;;77.22;56.22;;;231.00;2048.00;;;;;;4971590;28;20031;-64
2022/02/13 09:58:33;;;;;;;64.50;46.47;;;231.10;2048.00;;;;;;4971004;28;20034;-59
2022/02/13 10:01:04;;;;;;;73.55;52.30;;;231.10;2073.60;;;;;;4971074;28;20397;-59
2022/02/13 10:03:32;;;;;;;50.72;40.08;;;231.20;2073.60;;;;;;4971608;28;20035;-59
2022/02/13 10:06:19;;;;;;;44.10;32.40;;;231.20;2073.60;;;;;;4971382;28;20068;-65
2022/02/13 10:08:48;;;;;;;43.53;34.05;;;231.20;2073.60;;;;;;4971094;28;20457;-61
2022/02/13 10:11:18;;;;;;;34.35;25.88;;;231.20;2099.20;;;;;;4971147;28;20117;-64
2022/02/13 10:13:53;;;;;;;31.38;21.92;;;231.30;2099.20;;;;;;4970899;28;20026;-59
2022/02/13 10:16:20;;;;;;;40.25;29.05;;;256.00;2048.00;;;;;;4971086;28;20030;-63
2022/02/13 10:18:53;;;;;;;46.83;29.33;;;256.40;2048.00;;;;;;4970940;28;20019;-61
2022/02/13 10:21:52;;;;;;;28.13;20.00;;;256.90;1971.20;;;;;;4971208;28;20042;-59
2022/02/13 10:24:28;;;;;;;35.22;22.48;;;256.90;1920.00;;;;;;4971110;28;20101;-59
2022/02/13 10:26:57;;;;;;;34.70;27.17;;;256.90;1945.60;;;;;;4971081;28;20053;-60
2022/02/13 10:29:27;;;;;;;27.58;21.92;;;281.80;1920.00;;;;;;4970858;28;20022;-59
2022/02/13 10:32:22;;;;;;;40.60;28.23;;;281.60;1894.40;;;;;;4970992;28;20528;-60
2022/02/13 10:35:12;;;;;;;41.15;29.00;;;282.00;1868.80;;;;;;4971145;28;20019;-64
2022/02/13 10:37:54;;;;;;;67.28;45.30;;;282.00;1894.40;;;;;;4971451;28;20385;-60
2022/02/13 10:40:25;;;;;;;44.15;29.15;;;282.30;1843.20;;;;;;4971343;28;20026;-63
2022/02/13 10:43:09;;;;;;;44.25;31.13;;;282.50;1817.60;;;;;;4971035;28;20029;-60
2022/02/13 10:45:39;;;;;;;39.67;28.20;;;282.10;1868.80;;;;;;4970701;28;20042;-60
2022/02/13 10:48:07;;;;;;;70.25;47.15;;;282.20;1817.60;;;;;;4968461;28;20073;-60
2022/02/13 10:50:36;;;;;;;48.67;29.70;;;282.50;1817.60;;;;;;4969241;28;20034;-60
2022/02/13 10:53:04;;;;;;;55.63;36.35;;;282.30;1843.20;;;;;;4972423;28;20027;-60
2022/02/13 10:55:32;;;;;;;65.68;47.30;;;282.50;1868.80;;;;;;4973309;28;20033;-59
2022/02/13 10:57:58;;;;;;;44.08;32.80;;;307.30;1868.80;;;;;;4972950;28;20026;-61
2022/02/13 11:00:30;;;;;;;49.78;30.85;;;307.50;1817.60;;;;;;4972298;28;20408;-60
2022/02/13 11:03:00;;;;;;;34.42;23.33;;;307.30;1843.20;;;;;;4972822;28;20539;-60
2022/02/13 11:05:29;;;;;;;47.55;30.55;;;307.30;1843.20;;;;;;4972790;28;20046;-59
2022/02/13 11:08:01;;;;;;;36.45;27.30;;;307.70;1817.60;;;;;;4972671;28;20073;-59
2022/02/13 11:10:36;;;;;;;44.37;30.17;;;307.50;1817.60;;;;;;4972667;28;20043;-60
2022/02/13 11:13:04;;;;;;;66.82;41.92;;;307.60;1817.60;;;;;;4972296;28;20089;-60
2022/02/13 11:15:31;;;;;;;56.55;39.65;;;307.50;1843.20;;;;;;4972817;28;20031;-59
2022/02/13 11:18:05;;;;;;;30.63;22.05;;;307.50;1817.60;;;;;;4972804;28;20031;-60
2022/02/13 11:20:32;;;;;;;31.98;22.20;;;307.20;1817.60;;;;;;4972805;28;20027;-59
2022/02/13 11:23:21;;;;;;;41.85;29.23;;;282.50;1817.60;;;;;;4972743;28;20114;-59
2022/02/13 11:25:52;;;;;;;41.40;31.70;;;282.30;1843.20;;;;;;4972150;28;20043;-59
2022/02/13 11:28:24;;;;;;;37.60;27.88;;;282.10;1843.20;;;;;;4972495;28;20034;-61
2022/02/13 11:30:50;;;;;;;48.88;39.03;;;282.30;1817.60;;;;;;4972521;28;20062;-60
2022/02/13 11:33:26;;;;;;;42.97;32.88;;;307.20;1817.60;;;;;;4972145;28;20027;-60
2022/02/13 11:35:59;;;;;;;49.30;31.00;;;282.50;1817.60;;;;;;4972243;28;20030;-60
2022/02/13 11:38:48;;;;;;;31.25;22.27;;;282.30;1843.20;;;;;;4972200;28;20039;-60
2022/02/13 11:41:46;;;;;;;36.53;27.60;;;307.20;1868.80;;;;;;4972050;28;20389;-60
2022/02/13 11:44:35;;;;;;;42.42;28.77;;;282.40;1817.60;;;;;;4951742;28;20035;-61
2022/02/13 11:47:01;;;;;;;38.80;22.23;;;307.30;1843.20;;;;;;4971075;28;20029;-58
2022/02/13 11:49:28;;;;;;;32.47;25.00;;;282.40;1817.60;;;;;;4971198;28;20062;-61
2022/02/13 11:51:54;;;;;;;57.50;36.78;;;282.50;1792.00;;;;;;4970585;28;20106;-61
2022/02/13 11:54:37;;;;;;;31.05;22.05;;;307.40;1817.60;;;;;;4970725;28;20384;-61
2022/02/13 11:57:08;;;;;;;74.97;47.97;;;282.40;1817.60;;;;;;4968390;28;20062;-59
2022/02/13 12:00:06;;;;;;;40.88;28.15;;;307.30;1817.60;;;;;;4970381;28;20536;-59
2022/02/13 12:02:35;;;;;;;48.30;33.58;;;282.50;1817.60;;;;;;4971099;28;20533;-59
2022/02/13 12:05:07;;;;;;;31.13;24.67;;;282.30;1817.60;;;;;;4970309;28;20073;-59
2022/02/13 12:07:57;;;;;;;36.85;24.10;;;282.20;1792.00;;;;;;4971842;28;20018;-60